Terminal Aerodrome Forecast
Issued by NWS Goodland, KS

Home | Current Version | Previous Version | Text Only | Print | Product List | Glossary On
Versions: 1 2 3 4 5 6 7 8 9 10 11 12
000
FTUS43 KGLD 230520
TAFGLD
TAF
KGLD 230520Z 2306/2406 VRB05KT P6SM SKC
     FM231000 VRB05KT P6SM SCT120
      TEMPO 2310/2313 4SM BR SCT120
     FM231600 17012KT P6SM SCT120 SCT200
     FM240000 18010KT P6SM SCT250=

USA.gov is the U.S. government's official web portal to all federal, state and local government web resources and services.